Home > Products > Valid Products > TAF

000
FTUS44 KMOB 191400 AAB
TAFPNS
TAF AMD
KPNS 191417Z 1914/2012 36014G20KT P6SM SCT015 BKN100
      TEMPO 1914/1916 BKN015
     FM192200 36008KT P6SM SCT015 BKN100=



000
FTUS44 KMOB 191200 AAA
TAFPNS
TAF AMD
KPNS 191247Z 1913/2012 34012KT P6SM OVC013
     FM191500 36008KT P6SM SCT015 BKN100=



000
FTUS44 KMOB 191200 AAA
TAFMOB
TAF AMD
KMOB 191245Z 1913/2012 02008KT P6SM FEW013 SCT200
     FM191500 36011KT P6SM SCT250=



000
FTUS44 KMOB 191100
TAFMOB
TAF
KMOB 191139Z 1912/2012 32008KT P6SM FEW006 FEW012
     FM191500 36011KT P6SM SCT035 SCT250=



000
FTUS44 KMOB 191100
TAFPNS
TAF
KPNS 191139Z 1912/2012 35013G21KT P6SM OVC011
     FM191500 36008KT P6SM SCT035 SCT250=



000
FTUS44 KMOB 190900 AAA
TAFPNS
TAF AMD
KPNS 190948Z 1910/2006 33012KT P6SM VCSH OVC018
     FM191200 35011KT P6SM BKN004
     FM191500 36008KT P6SM SCT035 SCT250=



000
FTUS44 KMOB 190900 AAA
TAFMOB
TAF AMD
KMOB 190946Z 1910/2006 35010KT P6SM VCSH FEW008 BKN025
     FM191500 36011KT P6SM SCT035 SCT250=



000
FTUS44 KMOB 190500 RRA
TAFPNS
TAF
KPNS 190541Z 1906/2006 35009KT P6SM FEW012 OVC025
      TEMPO 1908/1912 5SM SHRA BKN015 OVC035
     FM191200 35011KT P6SM BKN004
     FM191500 36008KT P6SM SCT035 SCT250=



000
FTUS44 KMOB 190500 RRA
TAFMOB
TAF
KMOB 190541Z 1906/2006 01010KT P6SM SCT045 OVC110
      TEMPO 1906/1910 5SM SHRA BKN015 OVC035
     FM191000 36008KT P6SM VCSH SCT015 BKN045 BKN200
     FM191500 36011KT P6SM SCT035 SCT250=



000
FTUS44 KMOB 190400 AAB
TAFMOB
TAF AMD
KMOB 190426Z 1904/1924 02011KT P6SM BKN035 OVC060
      TEMPO 1904/1907 5SM -RA BR BKN020 OVC035
     FM190700 36008KT P6SM VCSH SCT015 BKN045 BKN200
     FM191400 36011KT P6SM SCT025 SCT250=



000
FTUS44 KMOB 190300 AAA
TAFMOB
TAF AMD
KMOB 190353Z 1904/1924 01013G20KT P6SM SCT016 OVC030
      TEMPO 1904/1906 5SM -RA BR BKN016 OVC030
     FM190600 36008KT P6SM VCSH SCT015 BKN045 BKN200
     FM191400 36011KT P6SM SCT025 SCT250=



000
FTUS44 KMOB 190100 CCA
TAFPNS
TAF COR
KPNS 190110Z 1900/1924 36014G20KT P6SM VCFG SCT007 OVC013
      TEMPO 1901/1905 BKN007
     FM190900 36014KT P6SM VCFG SCT015 BKN035
     FM191500 35011KT P6SM SCT035 SCT250=



000
FTUS44 KMOB 182300
TAFMOB
TAF
KMOB 182338Z 1900/1924 36012KT P6SM VCFG FEW012 SCT017 BKN035
      TEMPO 1900/1904 BKN017
     FM190400 35007KT P6SM BKN015
     FM190600 36008KT P6SM SCT015 BKN045 BKN200
     FM191400 36011KT P6SM SCT025 SCT250=



000
FTUS44 KMOB 182300
TAFPNS
TAF
KPNS 182338Z 1900/1924 36014G20KT P6SM VCFG SCT007 OVC013
      TEMPO 1902/1906 BKN007
     FM190900 36014KT P6SM VCFG SCT015 BKN035
     FM191500 35011KT P6SM SCT035 SCT250=



000
FTUS44 KMOB 182200 AAA
TAFMOB
TAF AMD
KMOB 182214Z 1822/1918 01012KT P6SM OVC017
     FM190600 36005KT 4SM BR BKN007
     FM191500 35011KT P6SM SKC=



000
FTUS44 KMOB 181700
TAFMOB
TAF
KMOB 181721Z 1818/1918 04014G21KT 5SM BR SCT009 OVC014
      TEMPO 1818/1820 5SM -RA BR BKN009
     FM190100 36012KT P6SM BKN030
     FM190600 36005KT 4SM BR BKN007
     FM191500 35011KT P6SM SKC=



000
FTUS44 KMOB 181700
TAFPNS
TAF
KPNS 181721Z 1818/1918 03010G19KT 1 1/2SM RA BR OVC007
     FM182100 01017KT P6SM -RA BKN015
     FM190100 36012KT P6SM BKN011
     FM190600 36005KT 4SM BR BKN007
     FM191500 35011KT P6SM SKC=



000
FTUS44 KMOB 181100 RRA
TAFMOB
TAF
KMOB 181141Z 1812/1912 03011KT 5SM RA BR OVC009
     FM181500 03014KT 5SM -RA OVC015
     FM181800 03017KT P6SM -RA BKN020
     FM190100 36012KT P6SM BKN030=



000
FTUS44 KMOB 181100 RRA
TAFPNS
TAF
KPNS 181141Z 1812/1912 02011G19KT 3SM RA BR BKN007 BKN015 OVC030
     FM181500 02014KT 5SM RA OVC012
     FM181900 01017KT P6SM -RA BKN020
     FM190100 36012KT P6SM BKN030=



000
FTUS44 KMOB 180700 AAA
TAFPNS
TAF AMD
KPNS 180758Z 1808/1906 06008KT 6SM RA BR OVC006
     FM181600 36008G15KT 4SM -RA OVC015
     FM181900 36010G18KT P6SM VCSH SCT015 BKN050=



000
FTUS44 KMOB 180700 AAA
TAFMOB
TAF AMD
KMOB 180757Z 1808/1906 04012KT 6SM RA BR BKN009 OVC014
     FM181300 05015G22KT 4SM -RA BR OVC008
     FM181600 03016G22KT P6SM BKN050=



000
FTUS44 KMOB 180500 RRA
TAFPNS
TAF
KPNS 180555Z 1806/1906 04005KT 4SM RA BR BKN008 OVC014
      TEMPO 1806/1808 3SM SHRA BKN015
     FM180800 05014G21KT 3SM SHRA BR OVC007
     FM181600 36008G15KT 4SM -RA OVC015
     FM181900 36010G18KT P6SM VCSH SCT015 BKN050=



000
FTUS44 KMOB 180500 RRA
TAFMOB
TAF
KMOB 180555Z 1806/1906 07009KT 4SM RA BR SCT045 BKN070 OVC100
     FM181300 05015G22KT 4SM BR OVC008
     FM181600 03016G22KT P6SM BKN050=



000
FTUS44 KMOB 180400 CCA
TAFPNS
TAF COR
KPNS 180417Z 1804/1824 03007KT 1 1/2SM +SHRA BR FEW022 BKN030
      OVC080
      TEMPO 1804/1808 3SM SHRA BKN015
     FM180800 05014G21KT 3SM SHRA BR OVC007
     FM181600 36008G15KT 4SM -RA OVC015
     FM181900 36010G18KT P6SM VCSH SCT015 BKN050=



000
FTUS44 KMOB 180300 AAB
TAFPNS
TAF AMD
KPNS 180355Z 1804/1824 03007KT 1 1/2SM +RA BR FEW022 BKN030 OVC080
      TEMPO 1804/1808 2SM SHRA BKN015
     FM180800 05014G21KT 3SM SHRA BR OVC007
     FM181600 36008G15KT 4SM -RA OVC015
     FM181900 36010G18KT P6SM VCSH SCT015 BKN050=



000
FTUS44 KMOB 180200 AAA
TAFPNS
TAF AMD
KPNS 180209Z 1802/1824 06005KT 5SM -SHRA VCTS BKN045CB OVC060
     FM180400 07014KT 4SM SHRA SCT007 OVC010
      TEMPO 1804/1808 2SM SHRA BKN007
     FM180800 05014G21KT 3SM SHRA BR OVC007
     FM181600 36008G15KT 4SM -RA OVC015
     FM181900 36010G18KT P6SM VCSH SCT015 BKN050=



000
FTUS44 KMOB 172300 RRA
TAFMOB
TAF
KMOB 172344Z 1800/1824 00000KT P6SM BKN040 OVC200
     FM180600 06011KT 4SM SHRA OVC010
     FM181300 05015G22KT 4SM BR OVC008
     FM181600 03016G22KT P6SM BKN050=



000
FTUS44 KMOB 172300 RRA
TAFPNS
TAF
KPNS 172344Z 1800/1824 06005KT P6SM OVC045
     FM180400 07014KT 4SM SHRA SCT007 OVC010
      TEMPO 1804/1808 2SM SHRA BKN007
     FM180800 05014G21KT 3SM SHRA BR OVC007
     FM181600 36008G15KT 4SM -RA OVC015
     FM181900 36010G18KT P6SM VCSH SCT015 BKN050=



000
FTUS44 KMOB 171700
TAFMOB
TAF
KMOB 171720Z 1718/1818 09007KT P6SM FEW030 OVC060
     FM180600 06011KT 4SM -SHRA OVC010 PROB30 1807/1813 4SM TSRA BR
      OVC007CB
     FM181300 05015G22KT 4SM BR OVC004=



000
FTUS44 KMOB 171700
TAFPNS
TAF
KPNS 171720Z 1718/1818 09007KT P6SM SCT060
     FM180600 06011KT 4SM -SHRA OVC010 PROB30 1808/1814 4SM TSRA BR
      OVC007CB
     FM181400 02015G22KT 4SM BR OVC004=



000
FTUS44 KMOB 171100
TAFPNS
TAF
KPNS 171136Z 1712/1812 07008KT P6SM BKN021 OVC040
     FM171600 10013G20KT P6SM BKN030 BKN200
     FM180600 06011KT 4SM -SHRA OVC010=



000
FTUS44 KMOB 171100
TAFMOB
TAF
KMOB 171136Z 1712/1812 07007KT P6SM BKN021 OVC040
     FM171600 10013G20KT P6SM BKN030 BKN200
     FM180600 06011KT 4SM -SHRA OVC010=



000
FTUS44 KMOB 170500
TAFPNS
TAF
KPNS 170537Z 1706/1806 05005KT P6SM SCT200
     FM170800 08008KT P6SM SCT020 BKN200
     FM171000 08010KT P6SM BKN020 BKN200
      TEMPO 1712/1716 BKN007
     FM171600 10012G20KT P6SM BKN030 BKN200=



000
FTUS44 KMOB 170500
TAFMOB
TAF
KMOB 170537Z 1706/1806 VRB03KT P6SM SCT200
     FM170900 08006KT P6SM SCT025 BKN200
     FM171200 08011KT P6SM BKN020 BKN200
     FM171600 10013G20KT P6SM BKN030 BKN200=



000
FTUS44 KMOB 162300
TAFPNS
TAF
KPNS 162338Z 1700/1724 17006KT P6SM SCT200
     FM170800 06008KT P6SM SCT015 BKN200
     FM171000 07012KT P6SM BKN015 BKN200
     FM171300 08010G16KT P6SM BKN007 OVC015
     FM171600 09012G20KT P6SM SCT015 BKN025 OVC200=



000
FTUS44 KMOB 162300
TAFMOB
TAF
KMOB 162338Z 1700/1724 21005KT P6SM FEW010 SCT200
     FM170900 09008KT P6SM SCT015 BKN200
     FM171200 09012KT P6SM BKN015 OVC200
     FM171600 10014G20KT P6SM BKN030 BKN200=



    US Dept of Commerce
    National Oceanic and Atmospheric Administration
    National Weather Service
    1325 East West Highway
    Silver Spring, MD 20910
    Page Author: NWS Internet Services Team
Disclaimer
Information Quality
Credits
Glossary
Privacy Policy
Freedom of Information Act (FOIA)
About Us
Career Opportunities